Time;durP1;ratioP1;P1;durP2;ratioP2;P2;SDS_P1;SDS_P2;PMS_P1;PMS_P2;Temp;Humidity;BMP_temperature;BMP_pressure;BME280_temperature;BME280_humidity;BME280_pressure;Samples;Min_cycle;Max_cycle;Signal;HPM_P1;HPM_P2
2021/10/10 00:00:00;;;;;;;21.12;9.63;;;;;;;3.47;57.78;101838.98;1747948;82;21540;-71
2021/10/10 00:02:26;;;;;;;24.25;10.68;;;;;;;3.49;56.79;101839.89;1747638;82;21523;-72
2021/10/10 00:04:53;;;;;;;22.62;10.82;;;;;;;3.54;56.35;101839.98;1741482;82;21103;-72
2021/10/10 00:07:20;;;;;;;22.15;11.33;;;;;;;3.56;57.61;101835.25;1712189;83;21082;-73
2021/10/10 00:09:46;;;;;;;26.55;10.80;;;;;;;3.62;55.30;101835.81;1705121;84;21098;-73
2021/10/10 00:12:13;;;;;;;22.20;10.20;;;;;;;3.69;57.12;101836.80;1720105;82;21010;-74
2021/10/10 00:14:39;;;;;;;25.85;10.48;;;;;;;3.70;55.41;101828.12;1734160;82;21065;-72
2021/10/10 00:17:05;;;;;;;27.75;10.43;;;;;;;3.74;55.52;101828.64;1733746;82;21985;-74
2021/10/10 00:19:33;;;;;;;30.88;10.82;;;;;;;3.77;58.16;101828.69;1733808;82;21049;-75
2021/10/10 00:22:00;;;;;;;23.87;10.13;;;;;;;3.78;55.07;101826.12;1733870;82;21049;-71
2021/10/10 00:24:26;;;;;;;20.15;9.00;;;;;;;3.82;55.68;101827.47;1734221;82;21560;-74
2021/10/10 00:26:53;;;;;;;25.43;10.38;;;;;;;3.84;57.26;101830.55;1733711;82;21545;-73
2021/10/10 00:29:19;;;;;;;30.48;11.48;;;;;;;3.87;55.23;101829.75;1730519;82;21473;-74
2021/10/10 00:31:46;;;;;;;21.95;10.08;;;;;;;3.87;56.76;101828.02;1704510;84;21132;-74
2021/10/10 00:34:12;;;;;;;20.50;9.58;;;;;;;3.88;54.60;101830.19;1704345;84;21050;-73
2021/10/10 00:36:39;;;;;;;20.57;9.95;;;;;;;3.90;55.44;101831.09;1704474;84;21070;-73
2021/10/10 00:39:05;;;;;;;28.38;10.95;;;;;;;3.89;55.37;101832.84;1704642;84;21608;-74
2021/10/10 00:41:38;;;;;;;21.42;10.10;;;;;;;3.90;54.48;101835.88;1713327;82;22133;-73
2021/10/10 00:44:10;;;;;;;19.32;9.60;;;;;;;3.91;56.80;101831.14;1719403;83;21107;-73
2021/10/10 00:46:36;;;;;;;26.12;10.95;;;;;;;3.76;57.35;101799.58;1719413;82;21055;-72
2021/10/10 00:49:03;;;;;;;22.37;10.70;;;;;;;3.93;55.53;101826.83;1719731;83;21075;-72
2021/10/10 00:51:34;;;;;;;19.15;9.55;;;;;;;3.95;56.46;101827.70;1719442;82;21681;-71
2021/10/10 00:54:03;;;;;;;23.27;9.58;;;;;;;3.94;55.14;101827.70;1719543;83;21083;-71
2021/10/10 00:56:31;;;;;;;19.30;9.08;;;;;;;3.98;59.36;101826.48;1719265;82;21099;-71
2021/10/10 00:58:58;;;;;;;20.97;10.20;;;;;;;3.97;59.29;101823.41;1719365;83;21067;-71
2021/10/10 01:01:28;;;;;;;22.20;9.68;;;;;;;4.02;58.32;101821.30;1719348;82;21055;-71
2021/10/10 01:03:54;;;;;;;21.48;9.45;;;;;;;4.03;63.10;101819.17;1719485;82;21409;-72
2021/10/10 01:06:20;;;;;;;26.42;10.23;;;;;;;4.02;58.92;101823.91;1706742;82;21146;-71
2021/10/10 01:08:47;;;;;;;23.62;10.60;;;;;;;4.01;59.66;101823.47;1716188;83;21073;-72
2021/10/10 01:11:13;;;;;;;22.20;10.75;;;;;;;3.99;58.58;101826.91;1717993;83;21089;-71
2021/10/10 01:13:40;;;;;;;22.52;9.90;;;;;;;3.96;56.28;101830.78;1718114;83;21117;-71
2021/10/10 01:16:07;;;;;;;22.65;10.00;;;;;;;3.92;57.06;101825.06;1681424;85;21595;-71
2021/10/10 01:18:33;;;;;;;23.67;9.70;;;;;;;3.90;56.42;101824.15;1718008;83;21151;-72
2021/10/10 01:21:00;;;;;;;26.05;10.80;;;;;;;3.87;55.92;101821.50;1718310;83;21231;-71
2021/10/10 01:23:26;;;;;;;20.92;10.60;;;;;;;3.86;56.91;101829.28;1717926;83;21070;-72
2021/10/10 01:25:53;;;;;;;25.05;10.25;;;;;;;3.84;55.60;101827.07;1718351;83;21201;-72
2021/10/10 01:28:20;;;;;;;25.30;10.38;;;;;;;3.81;56.47;101825.29;1717942;83;21048;-74
2021/10/10 01:30:47;;;;;;;19.40;9.85;;;;;;;3.80;57.36;101823.55;1718559;83;21120;-74
2021/10/10 01:33:14;;;;;;;25.05;10.13;;;;;;;3.82;56.51;101825.77;1717666;83;21085;-77
2021/10/10 01:35:41;;;;;;;23.22;9.80;;;;;;;3.81;57.00;101816.17;1718403;83;21524;-77
2021/10/10 01:38:08;;;;;;;21.12;9.53;;;;;;;3.79;55.70;101820.04;1718455;83;21056;-74
2021/10/10 01:40:37;;;;;;;23.27;10.50;;;;;;;3.80;55.75;101819.64;1684213;85;21058;-76
2021/10/10 01:43:05;;;;;;;20.55;10.50;;;;;;;3.76;56.12;101821.30;1719804;83;21169;-74
2021/10/10 01:45:31;;;;;;;23.73;10.35;;;;;;;3.76;55.08;101821.30;1718461;83;21061;-72
2021/10/10 01:47:58;;;;;;;19.52;9.63;;;;;;;3.77;56.01;101819.56;1718188;83;21037;-74
2021/10/10 01:50:25;;;;;;;23.05;10.63;;;;;;;3.76;56.27;101818.69;1718345;83;21041;-72
2021/10/10 01:52:51;;;;;;;18.45;8.73;;;;;;;3.76;55.36;101813.91;1718175;83;21584;-74
2021/10/10 01:55:19;;;;;;;23.67;10.55;;;;;;;3.77;58.70;101813.05;1718267;83;21898;-74
2021/10/10 01:57:45;;;;;;;23.25;10.13;;;;;;;3.76;56.79;101803.48;1717932;83;21551;-75
2021/10/10 02:00:13;;;;;;;20.20;9.28;;;;;;;3.78;56.43;101811.78;1718130;83;21068;-73
2021/10/10 02:02:40;;;;;;;23.73;9.75;;;;;;;3.78;58.06;101810.91;1717950;83;21065;-75
2021/10/10 02:05:07;;;;;;;18.15;9.35;;;;;;;3.80;58.10;101813.13;1727945;82;21603;-74
2021/10/10 02:07:35;;;;;;;21.93;9.68;;;;;;;3.84;61.84;101814.91;1744052;82;21155;-75
2021/10/10 02:10:03;;;;;;;23.80;9.93;;;;;;;3.84;58.39;101816.21;1733907;82;21010;-71
2021/10/10 02:12:30;;;;;;;20.10;10.35;;;;;;;3.89;62.74;101819.80;1733688;82;21054;-71
2021/10/10 02:14:56;;;;;;;20.37;9.20;;;;;;;3.87;59.42;101819.33;1734222;82;21050;-71
2021/10/10 02:17:24;;;;;;;22.07;9.65;;;;;;;3.84;57.91;101812.30;1733546;82;21292;-71
2021/10/10 02:19:52;;;;;;;17.75;9.55;;;;;;;3.84;61.28;101816.21;1733739;82;21219;-72
2021/10/10 02:22:19;;;;;;;20.70;9.80;;;;;;;3.84;59.19;101820.55;1733622;82;21588;-74
2021/10/10 02:24:46;;;;;;;17.40;8.83;;;;;;;3.85;58.33;101815.81;1734219;82;21085;-72
2021/10/10 02:27:12;;;;;;;22.95;10.00;;;;;;;3.83;58.11;101811.86;1733879;82;21054;-72
2021/10/10 02:29:39;;;;;;;22.37;10.43;;;;;;;3.80;56.66;101814.42;1733701;82;21585;-73
2021/10/10 02:32:08;;;;;;;16.93;9.83;;;;;;;3.79;57.68;101813.95;1734118;82;21963;-73
2021/10/10 02:34:34;;;;;;;17.87;9.20;;;;;;;3.78;57.43;101817.00;1724768;82;21082;-72
2021/10/10 02:37:00;;;;;;;21.12;9.43;;;;;;;3.78;56.77;101812.22;1719223;82;21064;-72
2021/10/10 02:39:27;;;;;;;17.10;9.88;;;;;;;3.76;58.25;101818.69;1719140;82;21067;-74
2021/10/10 02:41:53;;;;;;;20.43;9.80;;;;;;;3.76;56.83;101816.52;1719340;82;21110;-74
2021/10/10 02:44:19;;;;;;;22.93;9.55;;;;;;;3.75;57.05;101819.56;1719054;83;21514;-73
2021/10/10 02:46:46;;;;;;;20.05;9.38;;;;;;;3.74;56.71;101814.30;1719366;83;21071;-74
2021/10/10 02:49:13;;;;;;;27.82;10.10;;;;;;;3.74;56.38;101816.91;1719464;83;21067;-71
2021/10/10 02:51:39;;;;;;;14.95;6.97;;;;;;;3.75;60.83;101819.56;1718940;83;21096;-71
2021/10/10 02:54:05;;;;;;;19.48;9.30;;;;;;;3.76;59.27;101824.34;1719419;82;21537;-69
2021/10/10 02:56:33;;;;;;;16.77;7.97;;;;;;;3.79;60.24;101820.47;1719129;83;21115;-69
2021/10/10 02:59:00;;;;;;;21.50;10.48;;;;;;;3.80;59.88;101819.64;1719180;83;21102;-70
2021/10/10 03:01:27;;;;;;;16.23;8.50;;;;;;;3.79;58.62;101820.04;1710474;82;21070;-69
2021/10/10 03:03:53;;;;;;;15.95;8.90;;;;;;;3.83;62.69;101818.81;1704602;84;21057;-70
2021/10/10 03:06:19;;;;;;;16.75;9.15;;;;;;;3.83;60.30;101819.69;1729104;82;21075;-70
2021/10/10 03:08:46;;;;;;;16.12;8.63;;;;;;;3.83;58.59;101818.38;1742515;81;21138;-72
2021/10/10 03:11:13;;;;;;;19.40;10.00;;;;;;;3.80;58.17;101822.25;1747683;82;21046;-72
2021/10/10 03:13:40;;;;;;;20.30;9.38;;;;;;;3.78;57.25;101823.95;1748001;82;21002;-73
2021/10/10 03:16:06;;;;;;;23.90;9.98;;;;;;;3.77;57.65;101824.38;1747910;82;21038;-73
2021/10/10 03:18:33;;;;;;;21.95;11.35;;;;;;;3.76;57.50;101821.73;1748079;82;21061;-71
2021/10/10 03:21:00;;;;;;;24.07;10.13;;;;;;;3.76;57.41;101819.13;1748040;82;21157;-72
2021/10/10 03:23:26;;;;;;;20.82;9.60;;;;;;;3.75;58.95;101817.35;1747792;82;21077;-71
2021/10/10 03:25:53;;;;;;;19.42;9.45;;;;;;;3.74;57.13;101821.69;1748059;82;21093;-73
2021/10/10 03:28:19;;;;;;;14.20;7.60;;;;;;;3.74;58.07;101818.22;1750457;82;20971;-72
2021/10/10 03:30:45;;;;;;;20.23;9.03;;;;;;;3.72;57.72;101813.40;1750982;82;21014;-73
2021/10/10 03:33:12;;;;;;;16.07;9.20;;;;;;;3.72;58.71;101813.40;1750717;82;21110;-72
2021/10/10 03:35:38;;;;;;;18.35;9.23;;;;;;;3.75;63.20;101808.23;1750063;82;21053;-73
2021/10/10 03:38:04;;;;;;;18.40;9.48;;;;;;;3.76;59.99;101806.09;1750492;82;21164;-71
2021/10/10 03:40:31;;;;;;;18.60;9.05;;;;;;;3.78;61.40;101808.31;1748164;82;21018;-73
2021/10/10 03:42:59;;;;;;;18.87;9.00;;;;;;;3.77;60.81;101803.93;1738606;82;21099;-73
2021/10/10 03:45:26;;;;;;;22.25;9.43;;;;;;;3.75;58.97;101806.53;1692022;83;21659;-75
2021/10/10 03:47:55;;;;;;;23.38;9.05;;;;;;;3.75;59.47;101803.02;1718485;83;21026;-73
2021/10/10 03:50:21;;;;;;;17.48;9.43;;;;;;;3.74;59.51;101801.28;1718553;83;21776;-72
2021/10/10 03:52:51;;;;;;;19.87;8.45;;;;;;;3.75;59.37;101800.41;1732082;82;21009;-71
2021/10/10 03:57:48;;;;;;;17.02;9.20;;;;;;;3.69;57.49;101801.20;1735979;82;21856;-78
2021/10/10 04:00:15;;;;;;;18.35;8.63;;;;;;;3.70;59.15;101800.77;1724377;82;21049;-79
2021/10/10 04:02:42;;;;;;;16.42;8.93;;;;;;;3.66;57.93;101801.16;1736412;82;21066;-75
2021/10/10 04:05:26;;;;;;;22.13;10.55;;;;;;;3.65;57.81;101798.08;1732040;82;20963;-75
2021/10/10 04:07:52;;;;;;;16.90;9.08;;;;;;;3.63;57.71;101793.69;1724263;82;21128;-76
2021/10/10 04:10:19;;;;;;;22.73;9.88;;;;;;;3.61;58.92;101792.78;1718752;83;21768;-76
2021/10/10 04:12:46;;;;;;;22.55;10.25;;;;;;;3.63;59.68;101793.69;1716809;83;21044;-77
2021/10/10 04:15:13;;;;;;;24.35;9.58;;;;;;;3.62;60.20;101794.12;1717560;83;20970;-77
2021/10/10 04:17:41;;;;;;;21.73;9.88;;;;;;;3.61;58.39;101792.78;1717247;83;21104;-77
2021/10/10 04:20:10;;;;;;;19.98;10.08;;;;;;;3.60;58.34;101788.44;1717725;83;22175;-77
2021/10/10 04:22:36;;;;;;;23.47;10.70;;;;;;;3.58;58.60;101787.97;1717229;83;21291;-78
2021/10/10 04:25:05;;;;;;;22.07;10.28;;;;;;;3.57;57.97;101780.14;1717052;83;21112;-77
2021/10/10 04:27:34;;;;;;;16.73;8.10;;;;;;;3.57;60.58;101786.23;1727840;82;21393;-77
2021/10/10 04:30:09;;;;;;;18.48;9.63;;;;;;;3.56;58.95;101787.06;1735925;82;21512;-74
2021/10/10 04:32:37;;;;;;;17.50;8.55;;;;;;;3.58;59.00;101793.17;1727238;82;21081;-75
2021/10/10 04:35:05;;;;;;;21.17;10.50;;;;;;;3.58;59.79;101786.66;1727508;82;21177;-75
2021/10/10 04:37:31;;;;;;;20.55;10.25;;;;;;;3.58;58.78;101787.97;1718692;82;21178;-77
2021/10/10 04:39:57;;;;;;;22.13;10.63;;;;;;;3.60;58.97;101787.13;1689307;83;21298;-81
2021/10/10 04:42:24;;;;;;;24.75;11.33;;;;;;;3.58;58.40;101791.88;1748535;81;21015;-76
2021/10/10 04:44:51;;;;;;;25.43;11.22;;;;;;;3.58;58.59;101789.27;1748199;82;21090;-76
2021/10/10 04:47:20;;;;;;;29.18;11.97;;;;;;;3.60;60.32;101793.65;1748116;82;21787;-77
2021/10/10 04:49:47;;;;;;;25.23;12.90;;;;;;;3.61;58.79;101789.75;1748014;82;21092;-79
2021/10/10 04:52:13;;;;;;;22.98;11.55;;;;;;;3.63;58.70;101801.08;1748285;82;21018;-77
2021/10/10 04:54:40;;;;;;;24.95;11.33;;;;;;;3.62;58.19;101793.25;1748073;82;21061;-77
2021/10/10 04:57:06;;;;;;;22.42;10.53;;;;;;;3.63;57.80;101793.26;1748475;82;21060;-74
2021/10/10 04:59:33;;;;;;;26.40;10.82;;;;;;;3.66;57.74;101791.12;1737138;82;21187;-76
2021/10/10 05:02:00;;;;;;;25.30;10.90;;;;;;;3.67;57.36;101788.56;1723387;82;21049;-77
2021/10/10 05:04:26;;;;;;;21.27;11.00;;;;;;;3.69;57.32;101793.37;1718292;82;21713;-77
2021/10/10 05:06:53;;;;;;;26.57;11.70;;;;;;;3.72;57.56;101795.16;1737290;82;21033;-76
2021/10/10 05:09:20;;;;;;;26.70;12.28;;;;;;;3.73;57.14;101791.72;1738418;81;21635;-77
2021/10/10 05:11:46;;;;;;;26.07;12.65;;;;;;;3.74;57.18;101796.06;1733797;82;21105;-76
2021/10/10 05:14:14;;;;;;;32.80;13.00;;;;;;;3.77;57.31;101800.02;1733727;82;21066;-75
2021/10/10 05:16:40;;;;;;;29.07;10.95;;;;;;;3.79;57.68;101801.80;1733831;82;21022;-76
2021/10/10 05:19:07;;;;;;;32.67;13.98;;;;;;;3.83;59.57;101797.53;1734349;81;20999;-75
2021/10/10 05:21:33;;;;;;;41.02;15.38;;;;;;;3.89;57.73;101804.16;1734146;82;21443;-77
2021/10/10 05:23:59;;;;;;;41.30;18.25;;;;;;;3.91;58.13;101802.47;1733973;82;21194;-73
2021/10/10 05:26:26;;;;;;;32.30;15.38;;;;;;;3.93;58.51;101799.46;1734289;82;20986;-77
2021/10/10 05:28:53;;;;;;;35.95;15.28;;;;;;;3.97;57.46;101802.55;1714533;82;21105;-78
2021/10/10 05:31:19;;;;;;;23.85;12.07;;;;;;;3.99;58.07;101804.75;1704835;84;21030;-77
2021/10/10 05:33:46;;;;;;;25.37;12.75;;;;;;;4.03;57.31;101804.83;1704871;84;21117;-78
2021/10/10 05:36:13;;;;;;;28.98;12.65;;;;;;;4.05;57.48;101811.82;1711172;82;21580;-78
2021/10/10 05:38:40;;;;;;;31.07;14.65;;;;;;;4.08;57.73;101815.77;1734233;82;20998;-77
2021/10/10 05:41:06;;;;;;;28.25;12.85;;;;;;;4.13;57.19;101821.06;1722415;82;21085;-78
2021/10/10 05:43:33;;;;;;;52.93;24.85;;;;;;;4.17;57.59;101815.05;1718602;82;21105;-77
2021/10/10 05:46:00;;;;;;;77.20;41.77;;;;;;;4.21;57.22;101812.95;1705926;82;21056;-78
2021/10/10 05:48:26;;;;;;;200.28;109.97;;;;;;;4.24;57.01;101812.98;1686601;84;21117;-79
2021/10/10 05:50:53;;;;;;;169.00;99.97;;;;;;;4.29;57.22;101812.63;1688405;84;21021;-76
2021/10/10 05:53:19;;;;;;;182.15;87.42;;;;;;;4.34;57.00;101810.96;1681229;84;21080;-77
2021/10/10 05:55:46;;;;;;;123.33;48.70;;;;;;;4.43;57.43;101811.97;1676138;84;21168;-76
2021/10/10 05:58:19;;;;;;;80.83;34.40;;;;;;;4.49;57.19;101818.59;1678982;84;21548;-77
2021/10/10 06:00:40;;;;;;;66.22;27.93;;;;;;;4.57;57.37;101811.30;1672954;84;21994;-77
2021/10/10 06:03:07;;;;;;;45.95;19.45;;;;;;;4.66;57.81;101819.70;1713368;82;21712;-78
2021/10/10 06:05:35;;;;;;;65.40;22.87;;;;;;;4.76;56.56;101812.47;1705804;82;21109;-77
2021/10/10 06:08:01;;;;;;;52.85;18.70;;;;;;;4.87;57.13;101816.94;1709130;82;21058;-75
2021/10/10 06:10:28;;;;;;;62.40;21.77;;;;;;;4.96;56.47;101809.23;1727475;82;21052;-79
2021/10/10 06:12:55;;;;;;;41.28;15.20;;;;;;;5.03;56.21;101816.28;1728127;82;21146;-77
2021/10/10 06:15:23;;;;;;;53.75;16.87;;;;;;;5.14;56.94;101811.20;1738872;82;21036;-77
2021/10/10 06:17:51;;;;;;;31.48;13.55;;;;;;;5.24;55.86;101810.03;1724898;82;21025;-77
2021/10/10 06:20:18;;;;;;;35.52;13.83;;;;;;;5.34;55.75;101810.14;1725745;82;21074;-77
2021/10/10 06:22:45;;;;;;;44.75;14.58;;;;;;;5.46;56.16;101803.73;1719154;82;21035;-79
2021/10/10 06:25:11;;;;;;;84.60;23.15;;;;;;;5.59;54.67;101807.34;1723352;82;21077;-78
2021/10/10 06:27:38;;;;;;;49.18;14.47;;;;;;;5.68;54.92;101805.72;1729295;82;21079;-77
2021/10/10 06:30:07;;;;;;;243.50;111.68;;;;;;;5.81;54.63;101805.83;1733433;82;21102;-75
2021/10/10 06:32:33;;;;;;;148.13;69.30;;;;;;;5.94;54.08;101809.44;1733878;82;21030;-78
2021/10/10 06:34:59;;;;;;;127.67;32.95;;;;;;;6.04;53.82;101808.67;1727264;82;21021;-78
2021/10/10 06:37:27;;;;;;;85.10;23.42;;;;;;;6.14;53.04;101813.11;1735784;82;22107;-77
2021/10/10 06:39:54;;;;;;;60.30;20.30;;;;;;;6.26;53.87;101816.28;1729566;82;21009;-77
2021/10/10 06:42:21;;;;;;;44.30;17.12;;;;;;;6.37;53.09;101811.97;1720312;82;21097;-77
2021/10/10 06:44:47;;;;;;;31.62;12.30;;;;;;;6.50;53.32;101815.12;1746926;82;21048;-75
2021/10/10 06:47:14;;;;;;;56.65;19.48;;;;;;;6.67;53.51;101806.50;1720718;82;21064;-77
2021/10/10 06:49:41;;;;;;;31.33;12.98;;;;;;;6.84;52.03;101811.85;1719108;83;21267;-78
2021/10/10 06:52:09;;;;;;;47.80;16.35;;;;;;;6.98;52.13;101812.78;1717993;83;21093;-79
2021/10/10 06:54:35;;;;;;;58.52;17.50;;;;;;;7.14;53.38;101811.11;1717363;83;21201;-80
2021/10/10 06:57:05;;;;;;;39.08;14.10;;;;;;;7.28;51.02;101814.66;1704259;82;21907;-79
2021/10/10 06:59:31;;;;;;;27.27;11.28;;;;;;;7.45;50.77;101811.20;1722728;82;21054;-80
2021/10/10 07:01:58;;;;;;;42.62;15.05;;;;;;;7.60;49.42;101811.25;1731371;82;21750;-80
2021/10/10 07:04:24;;;;;;;46.15;15.83;;;;;;;7.70;49.33;101815.63;1738424;82;21576;-78
2021/10/10 07:06:51;;;;;;;40.70;14.65;;;;;;;7.84;49.56;101810.84;1733923;82;21117;-77
2021/10/10 07:09:18;;;;;;;27.87;12.60;;;;;;;8.00;48.62;101806.05;1742792;81;21117;-80
2021/10/10 07:11:45;;;;;;;47.67;15.85;;;;;;;8.20;50.79;101808.23;1733150;82;21037;-79
2021/10/10 07:14:11;;;;;;;41.08;15.43;;;;;;;8.43;47.95;101807.38;1733590;82;21123;-78
2021/10/10 07:16:42;;;;;;;31.35;11.78;;;;;;;8.59;46.18;101807.78;1733380;82;21042;-79
2021/10/10 07:19:06;;;;;;;53.85;21.40;;;;;;;8.70;46.14;101806.91;1733152;82;21109;-77
2021/10/10 07:21:57;;;;;;;57.27;29.35;;;;;;;8.77;45.86;101806.01;1732505;82;21592;-78
2021/10/10 07:27:04;;;;;;;31.77;13.48;;;;;;;9.09;45.84;101805.00;1732441;82;21089;-78
2021/10/10 07:29:32;;;;;;;24.12;11.40;;;;;;;9.33;45.79;101794.38;1732233;82;21580;-78
2021/10/10 07:31:59;;;;;;;55.78;17.85;;;;;;;9.61;45.71;101798.16;1732192;82;21030;-79
2021/10/10 07:34:26;;;;;;;91.35;23.98;;;;;;;9.86;43.84;101806.77;1732022;82;21058;-78
2021/10/10 07:36:52;;;;;;;72.37;20.35;;;;;;;10.00;43.03;101800.08;1733252;82;21025;-79
2021/10/10 07:39:19;;;;;;;34.95;14.03;;;;;;;10.15;43.16;101806.55;1732699;82;21174;-78
2021/10/10 07:41:46;;;;;;;33.50;13.35;;;;;;;10.34;41.95;101800.70;1733747;82;21038;-77
2021/10/10 07:44:13;;;;;;;30.57;12.55;;;;;;;10.56;42.05;101803.11;1733701;82;21066;-76
2021/10/10 07:46:42;;;;;;;29.02;11.80;;;;;;;10.79;41.63;101799.80;1733717;82;21058;-77
2021/10/10 07:49:09;;;;;;;34.80;14.25;;;;;;;11.01;40.09;101801.72;1733972;82;21042;-78
2021/10/10 07:51:37;;;;;;;56.13;16.95;;;;;;;11.18;40.22;101798.00;1733987;82;22029;-77
2021/10/10 07:54:04;;;;;;;31.33;12.85;;;;;;;11.35;39.98;101792.07;1733686;82;21028;-77
2021/10/10 07:56:31;;;;;;;40.60;15.18;;;;;;;11.60;38.92;101793.05;1734188;82;21565;-78
2021/10/10 07:58:57;;;;;;;37.48;13.93;;;;;;;11.84;39.73;101802.34;1734018;82;21030;-78
2021/10/10 08:01:24;;;;;;;30.23;13.32;;;;;;;12.10;38.57;101803.27;1734093;82;21086;-76
2021/10/10 08:03:50;;;;;;;38.25;14.47;;;;;;;12.36;38.65;101794.46;1734281;82;21596;-76
2021/10/10 08:06:18;;;;;;;33.10;11.57;;;;;;;12.77;37.91;101794.14;1734402;82;21501;-76
2021/10/10 08:08:45;;;;;;;29.15;11.60;;;;;;;13.19;35.90;101803.42;1734314;82;21109;-77
2021/10/10 08:11:11;;;;;;;23.65;9.45;;;;;;;13.50;35.89;101800.12;1747058;81;21050;-76
2021/10/10 08:13:37;;;;;;;36.23;12.53;;;;;;;13.80;35.67;101797.67;1747701;82;21990;-77
2021/10/10 08:16:04;;;;;;;22.25;9.03;;;;;;;14.15;34.60;101799.47;1748224;82;21779;-77
2021/10/10 08:18:31;;;;;;;34.30;10.40;;;;;;;14.51;33.30;101801.20;1747699;82;21540;-79
2021/10/10 08:20:57;;;;;;;86.25;37.98;;;;;;;14.80;31.88;101797.79;1748397;82;21583;-76
2021/10/10 08:23:24;;;;;;;45.43;23.75;;;;;;;15.07;32.63;101793.48;1747687;82;21077;-76
2021/10/10 08:25:51;;;;;;;56.85;17.40;;;;;;;15.41;32.79;101792.45;1747689;82;21057;-77
2021/10/10 08:28:18;;;;;;;30.85;11.70;;;;;;;15.83;31.75;101790.27;1747604;82;21250;-76
2021/10/10 08:30:44;;;;;;;26.33;10.40;;;;;;;16.12;31.50;101787.95;1747906;82;21041;-77
2021/10/10 08:33:11;;;;;;;20.00;8.38;;;;;;;16.45;30.76;101786.41;1747998;82;21066;-79
2021/10/10 08:35:38;;;;;;;14.38;7.28;;;;;;;16.71;29.53;101779.28;1747977;82;21418;-78
2021/10/10 08:38:04;;;;;;;20.97;8.28;;;;;;;16.87;29.64;101777.83;1748290;82;21049;-79
2021/10/10 08:40:31;;;;;;;15.95;6.97;;;;;;;16.91;28.00;101778.56;1747924;82;21530;-78
2021/10/10 08:43:00;;;;;;;14.75;6.53;;;;;;;16.62;28.13;101776.49;1747842;82;21033;-78
2021/10/10 08:45:30;;;;;;;18.32;6.20;;;;;;;16.29;27.88;101783.42;1747839;82;21046;-79
2021/10/10 08:47:57;;;;;;;14.13;6.15;;;;;;;15.86;28.66;101784.84;1748166;82;21034;-78
2021/10/10 08:50:30;;;;;;;16.37;6.03;;;;;;;15.37;30.74;101776.20;1748178;82;21030;-78
2021/10/10 08:52:59;;;;;;;16.20;6.83;;;;;;;15.20;29.47;101781.56;1750639;82;21127;-77
2021/10/10 08:55:28;;;;;;;16.32;6.95;;;;;;;15.12;30.53;101780.94;1749967;82;21049;-79
2021/10/10 08:57:55;;;;;;;15.13;6.12;;;;;;;15.12;29.43;101782.27;1749585;82;21080;-77
2021/10/10 09:00:29;;;;;;;18.45;6.83;;;;;;;15.23;30.05;101769.98;1748382;82;21065;-77
2021/10/10 09:02:51;;;;;;;15.08;5.97;;;;;;;15.42;29.88;101774.30;1747434;82;20991;-78
2021/10/10 09:05:18;;;;;;;20.70;6.67;;;;;;;15.73;29.16;101779.09;1747822;82;21181;-80
2021/10/10 09:07:48;;;;;;;18.65;7.22;;;;;;;15.99;28.71;101781.78;1748022;82;21041;-78
2021/10/10 09:10:27;;;;;;;22.65;6.65;;;;;;;16.16;29.58;101775.45;1742383;81;21046;-78
2021/10/10 09:13:15;;;;;;;15.95;6.62;;;;;;;16.25;28.51;101772.94;1734029;82;21078;-79
2021/10/10 09:15:48;;;;;;;14.45;6.15;;;;;;;16.37;28.31;101772.50;1734240;82;21338;-77
2021/10/10 09:18:15;;;;;;;17.12;6.10;;;;;;;16.71;27.36;101770.84;1733994;82;21122;-77
2021/10/10 09:20:45;;;;;;;18.27;6.17;;;;;;;16.87;26.48;101764.52;1733860;82;21020;-77
2021/10/10 09:23:24;;;;;;;15.72;6.35;;;;;;;16.99;26.97;101753.88;1734427;82;21049;-79
2021/10/10 09:26:00;;;;;;;21.87;11.65;;;;;;;17.08;26.22;101760.18;1734458;82;21536;-78
2021/10/10 09:28:29;;;;;;;17.00;5.78;;;;;;;17.24;25.75;101744.95;1731233;82;21066;-78
2021/10/10 09:31:05;;;;;;;14.00;4.72;;;;;;;17.42;24.95;101749.55;1734410;82;21111;-77
2021/10/10 09:33:46;;;;;;;12.47;4.53;;;;;;;17.95;23.87;101749.65;1734130;82;21568;-78
2021/10/10 09:36:19;;;;;;;13.25;4.55;;;;;;;18.30;23.52;101750.80;1734202;82;21030;-79
2021/10/10 09:38:57;;;;;;;9.65;4.72;;;;;;;18.31;24.66;101743.65;1734050;82;21038;-79
2021/10/10 09:41:27;;;;;;;9.40;4.55;;;;;;;18.38;23.90;101747.78;1732445;82;21021;-81
2021/10/10 09:44:14;;;;;;;11.85;4.37;;;;;;;18.64;23.83;101735.97;1733385;82;21277;-80
2021/10/10 09:46:40;;;;;;;19.05;5.92;;;;;;;18.89;22.98;101733.08;1711028;82;21125;-79
2021/10/10 09:49:32;;;;;;;12.45;5.35;;;;;;;19.22;23.12;101732.42;1733524;81;21128;-80
2021/10/10 09:52:13;;;;;;;14.23;4.40;;;;;;;19.80;23.31;101734.92;1733855;82;21663;-80
2021/10/10 09:54:54;;;;;;;10.00;4.10;;;;;;;20.51;21.73;101720.58;1733979;82;21112;-80
2021/10/10 09:57:23;;;;;;;12.78;3.75;;;;;;;21.07;21.03;101730.05;1733743;82;21525;-80
2021/10/10 09:59:50;;;;;;;7.75;3.75;;;;;;;21.31;19.90;101733.15;1734040;82;21065;-81
2021/10/10 10:02:16;;;;;;;10.88;4.85;;;;;;;21.54;21.34;101727.84;1734009;82;21049;-79
2021/10/10 10:04:49;;;;;;;8.13;4.12;;;;;;;22.05;19.40;101714.61;1733643;82;21018;-80
2021/10/10 10:07:21;;;;;;;7.35;3.20;;;;;;;22.27;19.82;101724.47;1707435;82;21101;-79
2021/10/10 10:09:52;;;;;;;11.10;3.30;;;;;;;22.19;19.25;101724.03;1704730;83;22136;-79
2021/10/10 10:12:20;;;;;;;7.83;3.08;;;;;;;22.00;18.71;101730.98;1704717;84;21065;-81
2021/10/10 10:15:01;;;;;;;8.45;2.95;;;;;;;21.39;19.14;101730.02;1704825;84;21101;-79
2021/10/10 10:17:28;;;;;;;13.20;4.47;;;;;;;21.11;19.67;101722.20;1704236;84;21046;-79
2021/10/10 10:19:58;;;;;;;14.85;3.83;;;;;;;21.09;20.59;101725.44;1704276;84;21105;-80
2021/10/10 10:24:38;;;;;;;16.32;7.35;;;;;;;21.36;20.00;101714.98;1789542;79;22595;-79
2021/10/10 10:27:04;;;;;;;9.28;3.75;;;;;;;21.42;21.09;101713.82;1733730;81;21077;-79
2021/10/10 10:29:32;;;;;;;14.30;4.58;;;;;;;21.43;20.21;101708.83;1719642;81;21141;-77
2021/10/10 10:31:59;;;;;;;17.82;13.58;;;;;;;21.45;20.50;101706.93;1733547;82;21025;-77
2021/10/10 10:34:33;;;;;;;10.93;4.37;;;;;;;21.18;20.76;101699.95;1747438;82;21086;-77
2021/10/10 10:37:08;;;;;;;17.90;7.70;;;;;;;21.08;20.46;101704.13;1722671;82;21264;-78
2021/10/10 10:39:47;;;;;;;8.08;3.80;;;;;;;21.08;20.92;101698.77;1718098;83;21031;-80
2021/10/10 10:42:29;;;;;;;9.63;4.50;;;;;;;21.07;20.80;101692.55;1717839;83;21129;-75
2021/10/10 10:44:55;;;;;;;;;;;;;;;21.00;20.69;101703.19;1720643;83;21045;-78
2021/10/10 10:47:26;;;;;;;10.13;4.60;;;;;;;20.78;20.92;101708.89;1717837;82;20117;-80
2021/10/10 10:49:59;;;;;;;17.37;5.95;;;;;;;20.60;21.24;101701.37;1726590;82;21080;-78
2021/10/10 10:52:31;;;;;;;11.15;4.97;;;;;;;20.44;21.21;101692.42;1721276;82;21130;-79
2021/10/10 10:55:22;;;;;;;10.90;4.95;;;;;;;20.36;21.46;101690.61;1717815;83;21520;-77
2021/10/10 10:58:01;;;;;;;10.58;4.55;;;;;;;20.36;21.58;101683.92;1682787;84;21069;-77
2021/10/10 11:00:36;;;;;;;6.20;3.80;;;;;;;20.48;21.48;101684.63;1710622;83;21034;-76
2021/10/10 11:03:26;;;;;;;11.10;4.08;;;;;;;20.49;21.33;101683.66;1717962;83;21048;-77
2021/10/10 11:06:01;;;;;;;9.70;3.90;;;;;;;20.55;21.05;101673.98;1737724;82;21560;-78
2021/10/10 11:08:36;;;;;;;10.43;3.85;;;;;;;20.80;20.87;101680.67;1747207;82;21132;-76
2021/10/10 11:11:19;;;;;;;11.55;3.85;;;;;;;20.86;20.83;101680.34;1748326;82;21018;-77
2021/10/10 11:14:02;;;;;;;15.53;4.75;;;;;;;20.77;21.27;101673.67;1748396;82;21042;-75
2021/10/10 11:16:34;;;;;;;10.18;4.47;;;;;;;21.13;21.13;101665.39;1751138;82;21044;-77
2021/10/10 11:19:09;;;;;;;5.75;2.72;;;;;;;21.65;19.81;101667.36;1749085;82;21085;-76
2021/10/10 11:21:40;;;;;;;8.85;2.98;;;;;;;21.63;18.27;101693.42;1748535;82;21123;-74
2021/10/10 11:24:22;;;;;;;10.13;4.15;;;;;;;20.75;18.54;101664.86;1739186;81;21046;-75
2021/10/10 11:26:49;;;;;;;5.53;2.83;;;;;;;20.15;20.77;101676.09;1730158;82;21301;-79
2021/10/10 11:29:18;;;;;;;9.00;5.47;;;;;;;19.90;19.44;101669.38;1733824;82;21078;-78
2021/10/10 11:31:46;;;;;;;16.07;6.17;;;;;;;19.75;19.97;101666.62;1724667;82;20990;-77